createdAt,value
2023-06-01T00:00:57.474Z,38.92
2023-06-01T00:01:57.442Z,38.93
2023-06-01T00:02:57.518Z,38.94
2023-06-01T00:03:57.555Z,38.95
2023-06-01T00:04:57.449Z,38.94
2023-06-01T00:05:57.439Z,38.98
2023-06-01T00:06:57.457Z,38.96
2023-06-01T00:07:57.448Z,38.94
2023-06-01T00:08:57.431Z,38.96
2023-06-01T00:09:57.430Z,38.95
2023-06-01T00:10:57.472Z,38.94
2023-06-01T00:11:57.403Z,38.96
2023-06-01T00:12:57.431Z,38.96
2023-06-01T00:13:57.449Z,38.97
2023-06-01T00:14:57.412Z,38.94
2023-06-01T00:15:57.428Z,38.96
2023-06-01T00:16:57.405Z,38.96
2023-06-01T00:17:57.445Z,39.00
2023-06-01T00:18:57.397Z,38.96
2023-06-01T00:19:57.397Z,38.95
2023-06-01T00:20:57.426Z,38.97
2023-06-01T00:21:57.481Z,38.98
2023-06-01T00:22:57.454Z,39.01
2023-06-01T00:23:57.403Z,38.98
2023-06-01T00:24:57.420Z,39.01
2023-06-01T00:25:57.417Z,38.99
2023-06-01T00:26:57.422Z,38.99
2023-06-01T00:27:57.418Z,39.00
2023-06-01T00:28:57.425Z,39.00
2023-06-01T00:29:57.385Z,39.02
2023-06-01T00:30:57.403Z,39.02
2023-06-01T00:31:57.619Z,38.99
2023-06-01T00:32:57.564Z,39.02
2023-06-01T00:33:57.438Z,39.02
2023-06-01T00:34:57.424Z,38.99
2023-06-01T00:35:57.368Z,39.01
2023-06-01T00:36:57.393Z,39.01
2023-06-01T00:37:57.384Z,39.03
2023-06-01T00:38:57.416Z,39.03
2023-06-01T00:39:57.392Z,39.03
2023-06-01T00:40:57.377Z,39.03
2023-06-01T00:41:58.829Z,39.05
2023-06-01T00:42:57.416Z,39.02
2023-06-01T00:43:57.386Z,39.00
2023-06-01T00:44:57.394Z,39.03
2023-06-01T00:45:57.406Z,39.04
2023-06-01T00:46:57.440Z,39.02
2023-06-01T00:47:57.477Z,39.01
2023-06-01T00:48:57.386Z,39.02
2023-06-01T00:49:57.397Z,39.01
2023-06-01T00:50:57.396Z,39.00
2023-06-01T00:51:57.391Z,39.01
2023-06-01T00:52:57.401Z,39.03
2023-06-01T00:53:57.419Z,39.05
2023-06-01T00:54:57.392Z,39.01
2023-06-01T00:55:57.427Z,39.03
2023-06-01T00:56:57.403Z,39.05
2023-06-01T00:57:57.422Z,39.05
2023-06-01T00:58:57.401Z,39.04
2023-06-01T00:59:57.395Z,39.06
2023-06-01T01:00:57.420Z,39.05
2023-06-01T01:01:57.401Z,39.07
2023-06-01T01:02:57.465Z,39.03
2023-06-01T01:03:57.420Z,39.06
2023-06-01T01:04:57.479Z,39.05
2023-06-01T01:05:57.404Z,39.05
2023-06-01T01:06:57.571Z,39.05
2023-06-01T01:07:57.454Z,39.04
2023-06-01T01:08:57.411Z,39.04
2023-06-01T01:09:57.454Z,39.06
2023-06-01T01:10:57.469Z,39.07
2023-06-01T01:11:57.470Z,39.04
2023-06-01T01:12:57.472Z,39.04
2023-06-01T01:13:57.453Z,39.07
2023-06-01T01:14:57.450Z,39.09
2023-06-01T01:15:57.477Z,39.05
2023-06-01T01:16:57.462Z,39.06
2023-06-01T01:17:57.526Z,39.06
2023-06-01T01:18:57.477Z,39.08
2023-06-01T01:19:57.470Z,39.06
2023-06-01T01:20:57.489Z,39.07
2023-06-01T01:21:57.610Z,39.06
2023-06-01T01:22:57.530Z,39.05
2023-06-01T01:23:57.516Z,39.07
2023-06-01T01:24:57.496Z,39.07
2023-06-01T01:25:57.495Z,39.06
2023-06-01T01:26:57.533Z,39.08
2023-06-01T01:27:57.545Z,39.07
2023-06-01T01:28:57.553Z,39.07
2023-06-01T01:29:57.610Z,39.08
2023-06-01T01:30:57.619Z,39.06
2023-06-01T01:31:57.556Z,39.06
2023-06-01T01:32:57.668Z,39.08
2023-06-01T01:33:57.568Z,39.09
2023-06-01T01:34:57.569Z,39.06
2023-06-01T01:35:57.525Z,39.05
2023-06-01T01:36:57.541Z,39.07
2023-06-01T01:37:57.549Z,39.07
2023-06-01T01:38:57.551Z,39.07
2023-06-01T01:39:57.558Z,39.08
2023-06-01T01:40:57.586Z,39.07
2023-06-01T01:41:57.581Z,39.10
2023-06-01T01:42:57.580Z,39.06
2023-06-01T01:43:57.595Z,39.07
2023-06-01T01:44:57.601Z,39.09
2023-06-01T01:45:57.605Z,39.11
2023-06-01T01:46:57.651Z,39.11
2023-06-01T01:47:57.648Z,39.11
2023-06-01T01:48:57.627Z,39.10
2023-06-01T01:49:57.623Z,39.10
2023-06-01T01:50:57.663Z,39.12
2023-06-01T01:51:57.648Z,39.12
2023-06-01T01:52:57.645Z,39.11
2023-06-01T01:53:57.666Z,39.11
2023-06-01T01:54:57.692Z,39.14
2023-06-01T01:55:57.689Z,39.10
2023-06-01T01:56:57.739Z,39.13
2023-06-01T01:57:57.719Z,39.11
2023-06-01T01:58:57.708Z,39.13
2023-06-01T01:59:57.693Z,39.12
2023-06-01T02:00:57.707Z,39.12
2023-06-01T02:01:57.708Z,39.12
2023-06-01T02:02:57.844Z,39.15
2023-06-01T02:03:57.864Z,39.15
2023-06-01T02:04:57.736Z,39.14
2023-06-01T02:05:57.740Z,39.14
2023-06-01T02:06:57.774Z,39.12
2023-06-01T02:07:57.760Z,39.14
2023-06-01T02:08:57.759Z,39.12
2023-06-01T02:09:57.773Z,39.12
2023-06-01T02:10:57.797Z,39.14
2023-06-01T02:11:57.777Z,39.13
2023-06-01T02:12:57.793Z,39.15
2023-06-01T02:13:57.796Z,39.15
2023-06-01T02:14:57.813Z,39.16
2023-06-01T02:15:57.784Z,39.17
2023-06-01T02:16:57.824Z,39.16
2023-06-01T02:17:57.845Z,39.17
2023-06-01T02:18:57.801Z,39.15
2023-06-01T02:19:57.807Z,39.15
2023-06-01T02:20:57.856Z,39.17
2023-06-01T02:21:57.901Z,39.17
2023-06-01T02:22:57.871Z,39.19
2023-06-01T02:23:57.854Z,39.16
2023-06-01T02:24:57.861Z,39.17
2023-06-01T02:25:57.894Z,39.17
2023-06-01T02:26:57.898Z,39.16
2023-06-01T02:27:57.908Z,39.17
2023-06-01T02:28:57.953Z,39.19
2023-06-01T02:29:57.943Z,39.19
2023-06-01T02:30:57.944Z,39.21
2023-06-01T02:31:58.002Z,39.18
2023-06-01T02:32:58.048Z,39.19
2023-06-01T02:33:58.016Z,39.19
2023-06-01T02:34:58.037Z,39.19
2023-06-01T02:35:58.019Z,39.21
2023-06-01T02:36:58.082Z,39.19
2023-06-01T02:37:58.071Z,39.20
2023-06-01T02:38:58.095Z,39.20
2023-06-01T02:39:58.091Z,39.20
2023-06-01T02:40:58.086Z,39.21
2023-06-01T02:41:58.088Z,39.21
2023-06-01T02:42:58.101Z,39.20
2023-06-01T02:43:58.116Z,39.20
2023-06-01T02:44:58.135Z,39.18
2023-06-01T02:45:58.176Z,39.18
2023-06-01T02:46:58.177Z,39.18
2023-06-01T02:47:58.190Z,39.18
2023-06-01T02:48:58.198Z,39.21
2023-06-01T02:49:58.209Z,39.20
2023-06-01T02:50:58.225Z,39.21
2023-06-01T02:51:58.302Z,39.21
2023-06-01T02:52:58.259Z,39.22
2023-06-01T02:53:58.280Z,39.20
2023-06-01T02:54:58.291Z,39.22
2023-06-01T02:55:58.301Z,39.20
2023-06-01T02:56:58.335Z,39.22
2023-06-01T02:57:58.334Z,39.22
2023-06-01T02:58:58.375Z,39.20
2023-06-01T02:59:58.395Z,39.23
2023-06-01T03:00:58.466Z,39.21
2023-06-01T03:01:58.468Z,39.23
2023-06-01T03:02:58.484Z,39.24
2023-06-01T03:03:58.554Z,39.23
2023-06-01T03:04:58.468Z,39.22
2023-06-01T03:05:58.523Z,39.25
2023-06-01T03:06:58.498Z,39.25
2023-06-01T03:07:58.543Z,39.26
2023-06-01T03:08:58.530Z,39.25
2023-06-01T03:09:58.559Z,39.25
2023-06-01T03:10:58.628Z,39.25
2023-06-01T03:11:58.600Z,39.25
2023-06-01T03:12:58.619Z,39.26
2023-06-01T03:13:58.639Z,39.26
2023-06-01T03:14:58.683Z,39.26
2023-06-01T03:15:58.752Z,39.22
2023-06-01T03:16:58.711Z,39.26
2023-06-01T03:17:58.757Z,39.28
2023-06-01T03:18:58.770Z,39.28
2023-06-01T03:19:58.779Z,39.26
2023-06-01T03:20:58.803Z,39.28
2023-06-01T03:21:58.884Z,39.27
2023-06-01T03:22:58.882Z,39.26
2023-06-01T03:23:58.864Z,39.28
2023-06-01T03:24:58.938Z,39.27
2023-06-01T03:25:58.901Z,39.23
2023-06-01T03:26:58.908Z,39.24
2023-06-01T03:27:58.934Z,39.26
2023-06-01T03:28:58.924Z,39.26
2023-06-01T03:29:58.989Z,39.25
2023-06-01T03:30:59.080Z,39.27
2023-06-01T03:31:59.014Z,39.27
2023-06-01T03:32:59.076Z,39.25
2023-06-01T03:33:59.054Z,39.27
2023-06-01T03:34:59.377Z,39.26
2023-06-01T03:35:59.453Z,39.29
2023-06-01T03:36:59.086Z,39.26
2023-06-01T03:37:59.140Z,39.26
2023-06-01T03:38:59.147Z,39.28
2023-06-01T03:39:59.144Z,39.28
2023-06-01T03:40:59.337Z,39.29
2023-06-01T03:41:59.174Z,39.28
2023-06-01T03:42:59.163Z,39.27
2023-06-01T03:43:59.161Z,39.23
2023-06-01T03:44:59.212Z,39.30
2023-06-01T03:45:59.254Z,39.26
2023-06-01T03:47:59.272Z,39.26
2023-06-01T03:48:59.305Z,39.26
2023-06-01T03:49:59.295Z,39.27
2023-06-01T03:50:59.451Z,39.28
2023-06-01T03:51:59.365Z,39.27
2023-06-01T03:52:59.370Z,39.26
2023-06-01T03:54:01.599Z,39.27
2023-06-01T03:54:59.444Z,39.27
2023-06-01T03:55:59.443Z,39.27
2023-06-01T03:56:59.460Z,39.29
2023-06-01T03:57:59.517Z,39.29
2023-06-01T03:58:59.548Z,39.28
2023-06-01T03:59:59.549Z,39.27
2023-06-01T04:00:59.745Z,39.28
2023-06-01T04:01:59.671Z,39.29
2023-06-01T04:02:59.739Z,39.30
2023-06-01T04:03:59.712Z,39.28
2023-06-01T04:04:59.672Z,39.29
2023-06-01T04:05:59.688Z,39.28
2023-06-01T04:06:59.704Z,39.28
2023-06-01T04:07:59.723Z,39.27
2023-06-01T04:08:59.834Z,39.20
2023-06-01T04:09:59.839Z,39.21
2023-06-01T04:10:59.967Z,39.19
2023-06-01T04:11:59.832Z,39.21
2023-06-01T04:12:59.863Z,39.17
2023-06-01T04:13:59.876Z,39.15
2023-06-01T04:14:59.913Z,39.14
2023-06-01T04:15:59.956Z,39.15
2023-06-01T04:17:00.134Z,39.13
2023-06-01T04:18:00.026Z,39.14
2023-06-01T04:19:00.027Z,39.09
2023-06-01T04:20:00.004Z,39.03
2023-06-01T04:21:00.240Z,39.03
2023-06-01T04:22:00.352Z,38.99
2023-06-01T04:23:00.152Z,39.03
2023-06-01T04:24:00.150Z,39.00
2023-06-01T04:25:00.225Z,38.88
2023-06-01T04:26:00.182Z,38.90
2023-06-01T04:27:00.240Z,38.94
2023-06-01T04:28:00.248Z,38.93
2023-06-01T04:29:00.249Z,38.91
2023-06-01T04:30:00.267Z,38.92
2023-06-01T04:31:00.504Z,38.93
2023-06-01T04:32:00.324Z,38.89
2023-06-01T04:33:00.328Z,38.89
2023-06-01T04:34:00.283Z,38.90
2023-06-01T04:35:00.321Z,38.89
2023-06-01T04:36:00.410Z,38.91
2023-06-01T04:37:00.391Z,38.91
2023-06-01T04:38:00.410Z,38.91
2023-06-01T04:39:00.413Z,38.88
2023-06-01T04:40:01.193Z,38.90
2023-06-01T04:41:00.690Z,38.91
2023-06-01T04:42:00.479Z,38.90
2023-06-01T04:43:00.486Z,38.88
2023-06-01T04:44:00.524Z,38.89
2023-06-01T04:45:00.540Z,38.89
2023-06-01T04:46:00.593Z,38.91
2023-06-01T04:47:00.547Z,38.90
2023-06-01T04:48:00.638Z,38.93
2023-06-01T04:49:00.553Z,38.90
2023-06-01T04:50:00.560Z,38.90
2023-06-01T04:51:00.789Z,38.89
2023-06-01T04:52:00.615Z,38.87
2023-06-01T04:53:00.611Z,38.87
2023-06-01T04:54:00.649Z,38.89
2023-06-01T04:55:00.631Z,38.86
2023-06-01T04:56:00.685Z,38.88
2023-06-01T04:57:00.688Z,38.86
2023-06-01T04:58:00.711Z,38.85
2023-06-01T04:59:00.731Z,38.85
2023-06-01T05:00:00.717Z,38.82
2023-06-01T05:01:00.982Z,38.83
2023-06-01T05:02:00.838Z,38.81
2023-06-01T05:03:00.766Z,38.81
2023-06-01T05:04:00.789Z,38.81
2023-06-01T05:05:00.808Z,38.77
2023-06-01T05:06:00.816Z,38.81
2023-06-01T05:07:00.821Z,38.79
2023-06-01T05:08:00.832Z,38.78
2023-06-01T05:09:00.852Z,38.78
2023-06-01T05:10:00.846Z,38.76
2023-06-01T05:11:01.001Z,38.77
2023-06-01T05:12:00.874Z,38.78
2023-06-01T05:13:00.899Z,38.79
2023-06-01T05:14:00.906Z,38.78
2023-06-01T05:15:00.985Z,38.77
2023-06-01T05:16:00.899Z,38.78
2023-06-01T05:17:00.902Z,38.78
2023-06-01T05:18:00.960Z,38.77
2023-06-01T05:19:00.994Z,38.76
2023-06-01T05:20:00.918Z,38.74
2023-06-01T05:21:01.034Z,38.72
2023-06-01T05:22:01.027Z,38.69
2023-06-01T05:23:00.952Z,38.68
2023-06-01T05:24:00.951Z,38.71
2023-06-01T05:25:00.989Z,38.72
2023-06-01T05:26:00.963Z,38.70
2023-06-01T05:27:00.988Z,38.68
2023-06-01T05:28:00.964Z,38.67
2023-06-01T05:29:00.941Z,38.69
2023-06-01T05:30:00.993Z,38.68
2023-06-01T05:31:01.172Z,38.66
2023-06-01T05:32:01.004Z,38.70
2023-06-01T05:33:02.339Z,38.69
2023-06-01T05:34:01.009Z,38.61
2023-06-01T05:35:00.994Z,38.29
2023-06-01T05:36:01.081Z,38.33
2023-06-01T05:37:01.042Z,38.20
2023-06-01T05:38:01.077Z,38.41
2023-06-01T05:39:01.117Z,38.39
2023-06-01T05:40:01.188Z,38.25
2023-06-01T05:41:01.485Z,38.30
2023-06-01T05:42:01.267Z,38.39
2023-06-01T05:43:01.310Z,38.50
2023-06-01T05:44:01.354Z,38.62
2023-06-01T05:45:01.457Z,38.92
2023-06-01T05:46:01.510Z,38.96
2023-06-01T05:47:01.500Z,39.04
2023-06-01T05:48:01.897Z,39.18
2023-06-01T05:49:01.629Z,39.21
2023-06-01T05:50:01.732Z,39.31
2023-06-01T05:51:01.951Z,39.41
2023-06-01T05:52:01.821Z,39.49
2023-06-01T05:53:01.814Z,39.62
2023-06-01T05:54:01.918Z,39.75
2023-06-01T05:55:01.927Z,39.83
2023-06-01T05:56:01.978Z,39.95
2023-06-01T05:57:01.974Z,40.11
2023-06-01T05:58:01.988Z,40.16
2023-06-01T05:59:02.066Z,39.44
2023-06-01T06:00:02.032Z,39.56
2023-06-01T06:01:02.503Z,39.58
2023-06-01T06:02:02.100Z,39.63
2023-06-01T06:03:02.143Z,39.72
2023-06-01T06:04:02.158Z,39.21
2023-06-01T06:05:02.164Z,39.05
2023-06-01T06:06:02.157Z,38.84
2023-06-01T06:07:02.168Z,38.55
2023-06-01T06:08:02.189Z,38.56
2023-06-01T06:09:02.162Z,38.63
2023-06-01T06:10:02.182Z,38.70
2023-06-01T06:11:02.484Z,38.50
2023-06-01T06:12:02.264Z,38.76
2023-06-01T06:13:02.344Z,38.69
2023-06-01T06:14:02.356Z,38.65
2023-06-01T06:15:02.310Z,38.80
2023-06-01T06:16:02.423Z,38.66
2023-06-01T06:17:02.364Z,38.63
2023-06-01T06:18:02.457Z,38.61
2023-06-01T06:19:02.461Z,38.75
2023-06-01T06:20:02.550Z,38.95
2023-06-01T06:21:02.737Z,39.13
2023-06-01T06:22:02.740Z,38.65
2023-06-01T06:23:02.745Z,38.65
2023-06-01T06:24:02.784Z,38.74
2023-06-01T06:25:02.814Z,38.70
2023-06-01T06:26:02.917Z,38.82
2023-06-01T06:27:02.872Z,38.73
2023-06-01T06:28:02.937Z,38.64
2023-06-01T06:29:03.085Z,38.47
2023-06-01T06:30:03.106Z,38.52
2023-06-01T06:31:03.455Z,38.63
2023-06-01T06:32:03.273Z,38.68
2023-06-01T06:33:03.235Z,38.67
2023-06-01T06:34:03.211Z,38.67
2023-06-01T06:35:03.257Z,38.66
2023-06-01T06:36:03.215Z,38.82
2023-06-01T06:37:03.234Z,38.97
2023-06-01T06:38:03.236Z,39.01
2023-06-01T06:39:03.267Z,39.05
2023-06-01T06:40:03.353Z,39.03
2023-06-01T06:41:03.581Z,39.05
2023-06-01T06:42:03.365Z,39.21
2023-06-01T06:43:03.365Z,39.28
2023-06-01T06:44:03.415Z,39.33
2023-06-01T06:45:03.444Z,39.47
2023-06-01T06:46:03.489Z,39.48
2023-06-01T06:47:03.522Z,39.65
2023-06-01T06:48:03.516Z,39.64
2023-06-01T06:49:03.516Z,39.39
2023-06-01T06:50:03.505Z,39.45
2023-06-01T06:51:04.061Z,39.46
2023-06-01T06:52:03.573Z,39.34
2023-06-01T06:53:03.539Z,39.51
2023-06-01T06:54:03.533Z,39.47
2023-06-01T06:55:03.547Z,39.19
2023-06-01T06:56:03.522Z,39.08
2023-06-01T06:57:03.532Z,39.17
2023-06-01T06:58:03.498Z,39.06
2023-06-01T06:59:08.125Z,39.09
2023-06-01T07:00:05.144Z,39.10
2023-06-01T07:01:03.731Z,39.19
2023-06-01T07:02:03.577Z,38.71
2023-06-01T07:03:03.570Z,38.65
2023-06-01T07:04:03.644Z,38.55
2023-06-01T07:05:03.477Z,38.47
2023-06-01T07:06:03.474Z,38.54
2023-06-01T07:07:03.456Z,38.55
2023-06-01T07:08:03.436Z,38.35
2023-06-01T07:09:03.491Z,38.32
2023-06-01T07:10:03.497Z,38.25
2023-06-01T07:11:03.667Z,38.29
2023-06-01T07:12:03.421Z,38.23
2023-06-01T07:13:03.420Z,38.26
2023-06-01T07:14:03.429Z,38.31
2023-06-01T07:15:03.417Z,38.27
2023-06-01T07:16:03.389Z,38.50
2023-06-01T07:17:03.519Z,38.53
2023-06-01T07:18:03.412Z,38.48
2023-06-01T07:19:03.436Z,38.60
2023-06-01T07:20:03.523Z,38.67
2023-06-01T07:21:03.597Z,38.77
2023-06-01T07:22:03.589Z,38.77
2023-06-01T07:23:03.435Z,38.66
2023-06-01T07:24:03.467Z,38.89
2023-06-01T07:25:03.463Z,38.72
2023-06-01T07:26:03.863Z,38.90
2023-06-01T07:27:03.461Z,39.29
2023-06-01T07:28:03.449Z,39.01
2023-06-01T07:29:03.531Z,38.75
2023-06-01T07:30:03.586Z,38.69
2023-06-01T07:31:04.117Z,38.62
2023-06-01T07:32:03.747Z,38.87
2023-06-01T07:33:03.781Z,39.01
2023-06-01T07:34:03.843Z,38.89
2023-06-01T07:35:03.840Z,38.93
2023-06-01T07:36:03.998Z,39.30
2023-06-01T07:37:16.116Z,39.38
2023-06-01T07:38:04.860Z,39.45
2023-06-01T07:39:03.898Z,39.75
2023-06-01T07:40:05.002Z,39.77
2023-06-01T07:41:04.146Z,39.94
2023-06-01T07:42:04.021Z,39.93
2023-06-01T07:43:04.027Z,40.13
2023-06-01T07:44:04.084Z,40.16
2023-06-01T07:45:04.056Z,40.13
2023-06-01T07:46:04.318Z,40.22
2023-06-01T07:47:04.003Z,40.71
2023-06-01T07:48:04.079Z,40.94
2023-06-01T07:49:04.012Z,39.80
2023-06-01T07:50:04.048Z,40.18
2023-06-01T07:51:04.140Z,39.95
2023-06-01T07:52:04.085Z,39.26
2023-06-01T07:53:04.076Z,39.34
2023-06-01T07:54:04.056Z,39.43
2023-06-01T07:55:04.124Z,39.87
2023-06-01T07:56:04.254Z,40.02
2023-06-01T07:57:04.076Z,40.06
2023-06-01T07:58:04.118Z,40.15
2023-06-01T07:59:04.065Z,40.23
2023-06-01T08:00:04.092Z,40.29
2023-06-01T08:01:04.250Z,40.32
2023-06-01T08:02:04.218Z,40.36
2023-06-01T08:03:04.260Z,40.44
2023-06-01T08:04:04.273Z,40.50
2023-06-01T08:05:04.392Z,40.55
2023-06-01T08:06:04.920Z,40.60
2023-06-01T08:07:04.906Z,40.70
2023-06-01T08:08:04.552Z,40.85
2023-06-01T08:09:04.591Z,40.90
2023-06-01T08:10:04.620Z,40.98
2023-06-01T08:11:04.700Z,41.06
2023-06-01T08:12:04.784Z,41.15
2023-06-01T08:13:04.851Z,41.26
2023-06-01T08:14:04.831Z,41.31
2023-06-01T08:15:04.898Z,41.57
2023-06-01T08:16:05.212Z,41.63
2023-06-01T08:17:05.595Z,41.76
2023-06-01T08:18:05.461Z,41.95
2023-06-01T08:19:05.053Z,42.01
2023-06-01T08:20:05.104Z,42.09
2023-06-01T08:21:05.114Z,42.37
2023-06-01T08:22:07.873Z,42.33
2023-06-01T08:23:05.157Z,42.34
2023-06-01T08:24:05.146Z,42.47
2023-06-01T08:25:05.134Z,42.66
2023-06-01T08:26:05.213Z,42.38
2023-06-01T08:27:05.185Z,42.30
2023-06-01T08:28:05.183Z,42.41
2023-06-01T08:29:05.369Z,42.33
2023-06-01T08:30:05.116Z,42.26
2023-06-01T08:31:05.197Z,42.22
2023-06-01T08:32:05.202Z,42.14
2023-06-01T08:33:05.249Z,42.10
2023-06-01T08:34:05.095Z,42.01
2023-06-01T08:35:05.065Z,41.96
2023-06-01T08:36:05.117Z,41.89
2023-06-01T08:37:05.116Z,41.85
2023-06-01T08:38:05.099Z,41.71
2023-06-01T08:39:05.074Z,41.67
2023-06-01T08:40:05.034Z,41.32
2023-06-01T08:41:05.039Z,41.18
2023-06-01T08:42:05.037Z,41.13
2023-06-01T08:43:05.099Z,41.00
2023-06-01T08:44:05.021Z,40.82
2023-06-01T08:45:05.006Z,40.65
2023-06-01T08:46:05.048Z,40.79
2023-06-01T08:47:05.032Z,40.79
2023-06-01T08:48:05.092Z,40.86
2023-06-01T08:49:04.971Z,40.81
2023-06-01T08:50:04.949Z,40.87
2023-06-01T08:51:04.950Z,40.92
2023-06-01T08:52:04.957Z,41.03
2023-06-01T08:53:04.980Z,41.01
2023-06-01T08:54:06.410Z,41.07
2023-06-01T08:55:04.930Z,41.07
2023-06-01T08:56:04.950Z,41.14
2023-06-01T08:57:04.896Z,41.14
2023-06-01T08:58:04.905Z,41.11
2023-06-01T08:59:04.957Z,41.15
2023-06-01T09:00:04.875Z,41.29
2023-06-01T09:01:04.905Z,41.27
2023-06-01T09:02:04.871Z,41.23
2023-06-01T09:03:04.959Z,41.34
2023-06-01T09:04:05.447Z,41.33
2023-06-01T09:05:05.002Z,41.37
2023-06-01T09:06:05.058Z,41.37
2023-06-01T09:07:05.044Z,41.50
2023-06-01T09:08:05.126Z,41.41
2023-06-01T09:09:05.164Z,41.29
2023-06-01T09:10:05.322Z,41.31
2023-06-01T09:11:05.248Z,41.19
2023-06-01T09:12:05.306Z,41.04
2023-06-01T09:13:05.301Z,40.88
2023-06-01T09:14:05.423Z,40.58
2023-06-01T09:15:05.375Z,40.10
2023-06-01T09:16:05.411Z,40.21
2023-06-01T09:17:05.577Z,39.99
2023-06-01T09:18:05.517Z,39.78
2023-06-01T09:19:05.564Z,39.75
2023-06-01T09:20:05.623Z,39.48
2023-06-01T09:21:05.663Z,39.32
2023-06-01T09:22:05.844Z,39.08
2023-06-01T09:23:05.755Z,38.93
2023-06-01T09:24:05.797Z,38.85
2023-06-01T09:25:05.797Z,38.76
2023-06-01T09:26:05.872Z,38.05
2023-06-01T09:27:06.820Z,38.13
2023-06-01T09:28:05.920Z,37.88
2023-06-01T09:29:06.005Z,38.00
2023-06-01T09:30:06.026Z,37.78
2023-06-01T09:31:06.105Z,36.94
2023-06-01T09:32:06.117Z,37.40
2023-06-01T09:33:06.196Z,36.87
2023-06-01T09:34:06.221Z,36.70
2023-06-01T09:35:06.454Z,36.85
2023-06-01T09:36:06.286Z,36.48
2023-06-01T09:37:06.350Z,36.86
2023-06-01T09:38:06.345Z,36.98
2023-06-01T09:39:06.418Z,37.10
2023-06-01T09:40:06.914Z,37.28
2023-06-01T09:41:06.486Z,37.34
2023-06-01T09:42:06.525Z,36.88
2023-06-01T09:43:06.563Z,36.85
2023-06-01T09:44:06.563Z,36.94
2023-06-01T09:45:06.909Z,36.51
2023-06-01T09:46:06.660Z,36.55
2023-06-01T09:47:06.781Z,36.64
2023-06-01T09:48:06.890Z,36.76
2023-06-01T09:49:06.781Z,36.78
2023-06-01T09:50:06.849Z,36.83
2023-06-01T09:51:06.862Z,36.75
2023-06-01T09:52:06.888Z,36.66
2023-06-01T09:53:06.988Z,36.53
2023-06-01T09:54:06.938Z,36.57
2023-06-01T09:55:06.943Z,36.61
2023-06-01T09:56:06.986Z,36.08
2023-06-01T09:58:07.414Z,36.29
2023-06-01T09:59:07.033Z,35.98
2023-06-01T10:00:07.015Z,36.13
2023-06-01T10:01:07.021Z,36.12
2023-06-01T10:02:07.043Z,35.98
2023-06-01T10:03:07.074Z,35.78
2023-06-01T10:04:07.123Z,35.36
2023-06-01T10:05:07.008Z,35.41
2023-06-01T10:06:06.952Z,35.18
2023-06-01T10:07:07.130Z,35.17
2023-06-01T10:08:07.290Z,34.93
2023-06-01T10:09:07.169Z,34.84
2023-06-01T10:10:06.988Z,34.69
2023-06-01T10:11:06.904Z,34.67
2023-06-01T10:12:07.012Z,34.44
2023-06-01T10:13:06.936Z,33.94
2023-06-01T10:14:06.917Z,33.76
2023-06-01T10:15:20.575Z,33.91
2023-06-01T10:16:07.995Z,34.06
2023-06-01T10:17:06.932Z,34.04
2023-06-01T10:18:06.933Z,34.03
2023-06-01T10:19:06.873Z,33.47
2023-06-01T10:20:06.901Z,33.33
2023-06-01T10:21:06.861Z,33.70
2023-06-01T10:22:06.922Z,33.64
2023-06-01T10:23:09.257Z,33.67
2023-06-01T10:24:07.883Z,33.68
2023-06-01T10:25:06.824Z,33.91
2023-06-01T10:26:06.931Z,35.08
2023-06-01T10:27:06.898Z,35.29
2023-06-01T10:28:06.788Z,34.63
2023-06-01T10:29:06.807Z,35.09
2023-06-01T10:30:06.822Z,35.52
2023-06-01T10:31:06.822Z,35.54
2023-06-01T10:32:06.846Z,34.88
2023-06-01T10:33:06.803Z,35.51
2023-06-01T10:34:06.829Z,35.61
2023-06-01T10:35:06.786Z,35.79
2023-06-01T10:36:06.759Z,35.88
2023-06-01T10:37:06.729Z,36.14
2023-06-01T10:38:06.798Z,36.26
2023-06-01T10:39:06.728Z,36.52
2023-06-01T10:40:06.714Z,36.60
2023-06-01T10:41:06.681Z,36.72
2023-06-01T10:42:06.687Z,36.78
2023-06-01T10:43:06.702Z,37.25
2023-06-01T10:44:06.700Z,36.77
2023-06-01T10:45:06.684Z,36.69
2023-06-01T10:46:06.786Z,36.87
2023-06-01T10:47:06.677Z,36.78
2023-06-01T10:48:07.037Z,36.89
2023-06-01T10:49:06.686Z,36.50
2023-06-01T10:50:06.671Z,36.54
2023-06-01T10:51:06.685Z,36.59
2023-06-01T10:52:06.716Z,35.44
2023-06-01T10:53:06.944Z,35.26
2023-06-01T10:54:06.780Z,35.01
2023-06-01T10:55:06.733Z,34.91
2023-06-01T10:56:06.735Z,35.39
2023-06-01T10:57:06.744Z,35.27
2023-06-01T10:58:06.752Z,34.64
2023-06-01T10:59:17.046Z,34.89
2023-06-01T11:00:07.756Z,34.91
2023-06-01T11:01:06.960Z,35.18
2023-06-01T11:02:06.820Z,35.44
2023-06-01T11:03:06.796Z,35.51
2023-06-01T11:04:06.741Z,35.58
2023-06-01T11:05:06.737Z,35.59
2023-06-01T11:06:07.685Z,35.98
2023-06-01T11:07:06.694Z,35.52
2023-06-01T11:08:06.708Z,35.50
2023-06-01T11:09:06.714Z,34.77
2023-06-01T11:10:06.703Z,35.19
2023-06-01T11:11:06.761Z,35.44
2023-06-01T11:12:06.684Z,35.65
2023-06-01T11:13:06.971Z,35.87
2023-06-01T11:14:06.656Z,35.88
2023-06-01T11:15:06.707Z,35.26
2023-06-01T11:16:09.896Z,35.31
2023-06-01T11:17:06.623Z,34.98
2023-06-01T11:18:06.681Z,34.48
2023-06-01T11:19:06.597Z,34.75
2023-06-01T11:20:06.641Z,35.23
2023-06-01T11:21:06.604Z,35.43
2023-06-01T11:22:06.715Z,35.51
2023-06-01T11:23:06.995Z,35.53
2023-06-01T11:24:06.569Z,35.85
2023-06-01T11:25:06.604Z,35.75
2023-06-01T11:26:06.546Z,35.77
2023-06-01T11:27:06.566Z,35.76
2023-06-01T11:28:06.982Z,35.73
2023-06-01T11:29:06.551Z,35.73
2023-06-01T11:30:06.528Z,35.76
2023-06-01T11:31:06.594Z,35.83
2023-06-01T11:32:07.605Z,35.80
2023-06-01T11:33:07.041Z,35.82
2023-06-01T11:34:06.554Z,35.80
2023-06-01T11:35:06.463Z,35.80
2023-06-01T11:36:06.500Z,35.82
2023-06-01T11:37:07.401Z,35.85
2023-06-01T11:38:06.495Z,35.83
2023-06-01T11:39:19.585Z,35.86
2023-06-01T11:40:07.436Z,35.87
2023-06-01T11:41:06.458Z,35.88
2023-06-01T11:42:06.425Z,35.91
2023-06-01T11:43:06.981Z,35.91
2023-06-01T11:44:06.443Z,35.90
2023-06-01T11:45:06.425Z,35.94
2023-06-01T11:46:17.874Z,35.95
2023-06-01T11:47:07.578Z,35.97
2023-06-01T11:48:06.428Z,35.96
2023-06-01T11:49:06.374Z,35.31
2023-06-01T11:50:06.407Z,34.43
2023-06-01T11:51:06.381Z,33.63
2023-06-01T11:52:06.368Z,33.32
2023-06-01T11:53:06.362Z,32.27
2023-06-01T11:54:06.346Z,32.12
2023-06-01T11:55:06.394Z,31.97
2023-06-01T11:56:06.431Z,31.91
2023-06-01T11:57:06.346Z,31.61
2023-06-01T11:58:06.344Z,31.57
2023-06-01T11:59:06.395Z,31.34
2023-06-01T12:00:06.410Z,31.35
2023-06-01T12:01:06.521Z,31.31
2023-06-01T12:02:06.560Z,31.16
2023-06-01T12:03:06.602Z,31.79
2023-06-01T12:04:06.736Z,32.78
2023-06-01T12:05:06.640Z,32.98
2023-06-01T12:06:06.713Z,33.13
2023-06-01T12:07:06.894Z,33.51
2023-06-01T12:08:06.820Z,33.35
2023-06-01T12:09:06.875Z,33.32
2023-06-01T12:10:06.994Z,34.01
2023-06-01T12:11:06.955Z,34.22
2023-06-01T12:12:07.024Z,34.23
2023-06-01T12:13:07.075Z,33.61
2023-06-01T12:14:07.256Z,34.04
2023-06-01T12:15:07.555Z,34.94
2023-06-01T12:16:21.116Z,34.50
2023-06-01T12:17:08.210Z,35.03
2023-06-01T12:18:07.297Z,35.19
2023-06-01T12:19:07.189Z,35.92
2023-06-01T12:20:07.532Z,35.46
2023-06-01T12:21:07.106Z,35.17
2023-06-01T12:22:07.245Z,35.73
2023-06-01T12:23:07.141Z,36.17
2023-06-01T12:24:07.091Z,36.11
2023-06-01T12:25:07.100Z,36.05
2023-06-01T12:26:07.067Z,36.46
2023-06-01T12:27:07.056Z,36.48
2023-06-01T12:28:07.120Z,37.17
2023-06-01T12:29:07.054Z,36.48
2023-06-01T12:30:07.096Z,36.41
2023-06-01T12:31:07.102Z,35.87
2023-06-01T12:32:07.043Z,35.63
2023-06-01T12:33:07.097Z,35.65
2023-06-01T12:34:07.059Z,35.20
2023-06-01T12:35:07.160Z,34.16
2023-06-01T12:36:07.112Z,34.31
2023-06-01T12:37:07.105Z,33.72
2023-06-01T12:38:07.227Z,33.88
2023-06-01T12:39:07.275Z,33.35
2023-06-01T12:40:07.252Z,33.79
2023-06-01T12:41:07.215Z,33.82
2023-06-01T12:42:07.212Z,33.69
2023-06-01T12:43:07.220Z,33.65
2023-06-01T12:44:07.263Z,33.33
2023-06-01T12:45:07.314Z,32.95
2023-06-01T12:46:07.318Z,32.89
2023-06-01T12:47:07.290Z,33.55
2023-06-01T12:48:07.430Z,33.26
2023-06-01T12:49:07.326Z,33.71
2023-06-01T12:50:07.331Z,33.99
2023-06-01T12:51:07.327Z,33.56
2023-06-01T12:52:07.312Z,32.61
2023-06-01T12:53:07.337Z,31.89
2023-06-01T12:54:07.381Z,31.87
2023-06-01T12:55:07.337Z,32.04